Jpo Aquarius — CQHE — position and weather

sailwx.info

Track history (hours):
 
Tides and Currents Weather Stations Pressure Air Temp Water Temp Dewpoint Dewpoint Depression Visibility Wind Speed Wind Dir Waves Ship Positions

Jpo Aquarius

Last reported at 2017-Oct-15 08:37 UTC. Time now 2017-Oct-20 05:29 UTC.
Position N 25°30' W 079°27'.

Length 207 m; draft 10.6 m.

Type: Ship. MMSI: 255805580.

Date/timePositionNaut miles runAvg speedWind from/ knotsBaromVisibWave heightAir tempDewpointWater temp
2017-Oct-15 08:37N 25°30' W 079°27'216.9
2017-Oct-15 08:30N 25°32' W 079°27'816.1
2017-Oct-15 08:01N 25°39' W 079°30'815.6
2017-Oct-15 07:30N 25°45' W 079°36'611.8
2017-Oct-15 07:00N 25°50' W 079°40'510.5
2017-Oct-15 06:30N 25°53' W 079°44'510.7
2017-Oct-15 06:00N 25°57' W 079°49'611.0
2017-Oct-15 05:30N 25°60' W 079°54'611.0
2017-Oct-15 05:00N 26°03' W 079°59'5 9.9
2017-Oct-15 04:30N 26°05' W 080°04'3 5.4
2017-Oct-15 04:01N 26°06' W 080°07'1 2.7
2017-Oct-15 03:30N 26°04' W 080°07'0 0.0
2017-Oct-15 03:00N 26°04' W 080°07'0 0.0
2017-Oct-15 02:30N 26°04' W 080°07'0 0.0
2017-Oct-15 02:00N 26°04' W 080°07'0 0.0
2017-Oct-15 01:30N 26°04' W 080°07'0 0.0
2017-Oct-15 01:00N 26°04' W 080°07'0 0.0
2017-Oct-15 00:30N 26°04' W 080°07'0 0.0
2017-Oct-15 00:00N 26°04' W 080°07'0 0.0
2017-Oct-14 23:30N 26°04' W 080°07'0 0.0
2017-Oct-14 22:57N 26°04' W 080°07'0 0.0
2017-Oct-14 22:27N 26°04' W 080°07'0 0.0
2017-Oct-14 22:00N 26°04' W 080°07'0 0.0
2017-Oct-14 21:30N 26°04' W 080°07'0 0.0
2017-Oct-14 20:58N 26°04' W 080°07'0 0.0
2017-Oct-14 20:20N 26°04' W 080°07'0 0.0
2017-Oct-14 20:00N 26°04' W 080°07'0 0.0
2017-Oct-14 19:27N 26°04' W 080°07'0 0.1
2017-Oct-14 19:00N 26°04' W 080°07'0 0.0
2017-Oct-14 18:19N 26°04' W 080°07'0 0.0
2017-Oct-14 17:52N 26°04' W 080°07'0 0.0
2017-Oct-14 17:22N 26°04' W 080°07'0 0.0
2017-Oct-14 16:55N 26°04' W 080°07'0 0.0
2017-Oct-14 16:28N 26°04' W 080°07'0 0.0
2017-Oct-14 15:58N 26°04' W 080°07'0 0.0
2017-Oct-14 15:25N 26°04' W 080°07'0 0.1
2017-Oct-14 15:01N 26°04' W 080°07'1 2.9
2017-Oct-14 14:31N 26°06' W 080°07'4 8.3
2017-Oct-14 14:01N 26°06' W 080°02'4 7.3
2017-Oct-14 13:31N 26°07' W 079°58'510.2
2017-Oct-14 13:01N 26°08' W 079°53'5 9.9
2017-Oct-14 12:30N 26°10' W 079°48'5 9.3
2017-Oct-14 12:00N 26°11' W 079°43'5 9.8
2017-Oct-14 11:30N 26°13' W 079°37'510.2
2017-Oct-14 11:00N 26°15' W 079°32'510.1
2017-Oct-14 10:30N 26°17' W 079°27'  
Track history (hours):
 
Tides and Currents Weather Stations Pressure Air Temp Water Temp Dewpoint Dewpoint Depression Visibility Wind Speed Wind Dir Waves Ship Positions

Jpo Aquarius

Last reported at 2017-Oct-15 08:37 UTC. Time now 2017-Oct-20 05:29 UTC.
Position N 25°30' W 079°27'.

Length 207 m; draft 10.6 m.

Type: Ship. MMSI: 255805580.

Date/timePositionNaut miles runAvg speedWind from/ knotsBaromVisibWave heightAir tempDewpointWater temp
2017-Oct-15 08:37N 25°30' W 079°27'216.9
2017-Oct-15 08:30N 25°32' W 079°27'816.1
2017-Oct-15 08:01N 25°39' W 079°30'815.6
2017-Oct-15 07:30N 25°45' W 079°36'611.8
2017-Oct-15 07:00N 25°50' W 079°40'510.5
2017-Oct-15 06:30N 25°53' W 079°44'510.7
2017-Oct-15 06:00N 25°57' W 079°49'611.0
2017-Oct-15 05:30N 25°60' W 079°54'611.0
2017-Oct-15 05:00N 26°03' W 079°59'5 9.9
2017-Oct-15 04:30N 26°05' W 080°04'3 5.4
2017-Oct-15 04:01N 26°06' W 080°07'1 2.7
2017-Oct-15 03:30N 26°04' W 080°07'0 0.0
2017-Oct-15 03:00N 26°04' W 080°07'0 0.0
2017-Oct-15 02:30N 26°04' W 080°07'0 0.0
2017-Oct-15 02:00N 26°04' W 080°07'0 0.0
2017-Oct-15 01:30N 26°04' W 080°07'0 0.0
2017-Oct-15 01:00N 26°04' W 080°07'0 0.0
2017-Oct-15 00:30N 26°04' W 080°07'0 0.0
2017-Oct-15 00:00N 26°04' W 080°07'0 0.0
2017-Oct-14 23:30N 26°04' W 080°07'0 0.0
2017-Oct-14 22:57N 26°04' W 080°07'0 0.0
2017-Oct-14 22:27N 26°04' W 080°07'0 0.0
2017-Oct-14 22:00N 26°04' W 080°07'0 0.0
2017-Oct-14 21:30N 26°04' W 080°07'0 0.0
2017-Oct-14 20:58N 26°04' W 080°07'0 0.0
2017-Oct-14 20:20N 26°04' W 080°07'0 0.0
2017-Oct-14 20:00N 26°04' W 080°07'0 0.0
2017-Oct-14 19:27N 26°04' W 080°07'0 0.1
2017-Oct-14 19:00N 26°04' W 080°07'0 0.0
2017-Oct-14 18:19N 26°04' W 080°07'0 0.0
2017-Oct-14 17:52N 26°04' W 080°07'0 0.0
2017-Oct-14 17:22N 26°04' W 080°07'0 0.0
2017-Oct-14 16:55N 26°04' W 080°07'0 0.0
2017-Oct-14 16:28N 26°04' W 080°07'0 0.0
2017-Oct-14 15:58N 26°04' W 080°07'0 0.0
2017-Oct-14 15:25N 26°04' W 080°07'0 0.1
2017-Oct-14 15:01N 26°04' W 080°07'1 2.9
2017-Oct-14 14:31N 26°06' W 080°07'4 8.3
2017-Oct-14 14:01N 26°06' W 080°02'4 7.3
2017-Oct-14 13:31N 26°07' W 079°58'510.2
2017-Oct-14 13:01N 26°08' W 079°53'5 9.9
2017-Oct-14 12:30N 26°10' W 079°48'5 9.3
2017-Oct-14 12:00N 26°11' W 079°43'5 9.8
2017-Oct-14 11:30N 26°13' W 079°37'510.2
2017-Oct-14 11:00N 26°15' W 079°32'510.1
2017-Oct-14 10:30N 26°17' W 079°27'  

Dump ship's entire track history